This is the latest recevied weather packets stored in our database for station/object IZ3ZOD-13. If no packets are shown the sender has not sent any weather packets the latest 10 day(s).
| Time | Temp. | Humidity | Pressure | Rain* | Wind** | Luminosity | Snow |
|---|---|---|---|---|---|---|---|
| 1777801683 | 24.44° C | 36% | 1019.1 hPa | 0 mm | - | - | - |
| 1777801443 | 23.89° C | 38% | 1019.3 hPa | 0 mm | - | - | - |
| 1777800617 | 23.89° C | 36% | 1019.3 hPa | 0 mm | - | - | - |
| 1777799284 | 23.89° C | 37% | 1019.4 hPa | 0 mm | - | - | - |
| 1777795923 | 22.22° C | 45% | 1019.5 hPa | 0 mm | - | - | - |
| 1777793524 | 20° C | 55% | 1019.6 hPa | 0 mm | - | - | - |
| 1777790883 | 18.33° C | 59% | 1019.5 hPa | 0 mm | - | - | - |
| 1777790164 | 17.78° C | 60% | 1019.6 hPa | 0 mm | - | - | - |
| 1777789924 | 17.78° C | 61% | 1019.7 hPa | 0 mm | - | - | - |
| 1777789444 | 17.78° C | 61% | 1019.6 hPa | 0 mm | - | - | - |
| 1777788243 | 16.11° C | 64% | 1019.6 hPa | 0 mm | - | - | - |
| 1777787283 | 15.56° C | 66% | 1019.5 hPa | 0 mm | - | - | - |
| 1777783577 | 11.67° C | 76% | 1019.4 hPa | 0 mm | - | - | - |
| 1777782483 | 10° C | 79% | 1019.3 hPa | 0 mm | - | - | - |
| 1777781283 | 8.89° C | 83% | 1019.2 hPa | 0 mm | - | - | - |
| 1777781044 | 8.89° C | 82% | 1019.2 hPa | 0 mm | - | - | - |
| 1777777683 | 9.44° C | 78% | 1019.2 hPa | 0 mm | - | - | - |
| 1777776004 | 10° C | 77% | 1019.3 hPa | 0 mm | - | - | - |
| 1777774694 | 10° C | 76% | 1019.4 hPa | 0 mm | - | - | - |
| 1777773363 | 10.56° C | 74% | 1019.4 hPa | 0 mm | - | - | - |
| 1777768803 | 12.22° C | 68% | 1019.6 hPa | 0 mm | - | - | - |
| 1777768563 | 12.22° C | 68% | 1019.6 hPa | 0 mm | - | - | - |
| 1777767843 | 12.78° C | 66% | 1019.6 hPa | 0 mm | - | - | - |
| 1777767603 | 12.78° C | 65% | 1019.7 hPa | 0 mm | - | - | - |
| 1777767364 | 12.78° C | 65% | 1020 hPa | 0 mm | - | - | - |
* Rain latest hour (hover to see other rain measurements)
** Current wind speed in m/s (hover to see current wind gust speed)